Airfield :
LOGIN :

Register | Disclaimer

   EN    FR    IT 

 










Legend :    VFR   Marginal VFR   IFR   Intensive IFR   Very Intensive IFR
Visi :
Ceiling :
>= 8 km
>= 3000ft
5 to 8 km
1000 to 3000 ft
1500m to 5 km
500 to 1000 ft
800 to 1500m
200 to 500 ft
< 800m
< 200 ft
Symbols :   Thunderstorms  Fog  Heavy snow  Heavy precipitations  Wind > 20 kt
SIGMETs :     Misc.  Thunderstorms  Icing  Turbulence  Mountain Waves  Volcanic Ashes







- Airport Elevation : 2945 ft
- IATA code : RGS


LEBG - Burgos

CURRENT METAR :
  • 190000Z AUTO 03008KT 3200 -RA BR OVC006/// 12/12 Q1017

EXPIRED METARs :
  • 182330Z AUTO 03009KT 6000 OVC007/// 13/12 Q1017
  • 182300Z AUTO 03009KT 360V060 9999 BKN008/// OVC013/// 13/12 Q1017
  • 182230Z AUTO 02010KT 360V060 9999 BKN007/// OVC013/// 13/12 Q1017
  • 182200Z AUTO 02013KT 9000 FEW007/// SCT014/// BKN039/// 12/12 Q1017
  • 182130Z AUTO 03012KT 9999 BKN006/// OVC013/// 12/12 Q1017

TAF TAF LEBG
Valid from the 18 at 18:00 until the 19 at 03:00 UTC


181700Z 1818/1903 05012KT 9999 BKN030
PROB30
TEMPO 1818/1903 RA SHRA BKN006 SCT015TCU
PROB40
TEMPO 1820/1903 BKN003
No reported NOTAMs for that airfield.



MET'MAP, your aeronautical weather chart ! - Copyright ORBIFLY December 2007 - Disclaimer

ORBIFLY MET'MAP TEAM :

Programming & Development : Alexandra Zaïnal
Concept & Development : Baudouin d'Aumeries
Co-Development & Prog : Marc-Olivier Méhu
Technical & hardware support : Manuel Goepfert

Contact : metmap@orbifly.com




SOURCES & CREDITS :

   NOAA